Time;durP1;ratioP1;P1;durP2;ratioP2;P2;SDS_P1;SDS_P2;PMS_P1;PMS_P2;Temp;Humidity;BMP_temperature;BMP_pressure;BME280_temperature;BME280_humidity;BME280_pressure;Samples;Min_cycle;Max_cycle;Signal;HPM_P1;HPM_P2
2021/07/16 00:02:04;;;;;;;15.60;14.80;;;17.10;94.50;;;;;;4991002;28;20464;-68
2021/07/16 00:04:31;;;;;;;15.30;14.60;;;17.10;94.60;;;;;;4990428;28;20461;-68
2021/07/16 00:07:00;;;;;;;15.83;15.00;;;17.10;94.60;;;;;;4991627;28;20497;-68
2021/07/16 00:09:27;;;;;;;16.13;15.13;;;17.10;94.50;;;;;;4989188;28;20974;-68
2021/07/16 00:11:53;;;;;;;15.67;14.77;;;17.00;94.70;;;;;;4988615;28;20461;-68
2021/07/16 00:14:20;;;;;;;15.70;14.90;;;16.90;94.90;;;;;;4990123;28;20460;-68
2021/07/16 00:16:49;;;;;;;16.13;15.03;;;16.90;94.90;;;;;;4991782;28;20477;-69
2021/07/16 00:19:16;;;;;;;15.37;14.60;;;16.90;94.90;;;;;;4980018;28;20476;-68
2021/07/16 00:21:43;;;;;;;15.40;14.70;;;16.80;94.90;;;;;;4991780;28;20465;-68
2021/07/16 00:24:11;;;;;;;16.90;15.60;;;16.80;94.90;;;;;;4990328;28;21754;-68
2021/07/16 00:26:38;;;;;;;16.13;15.30;;;16.80;94.70;;;;;;4989871;28;20494;-68
2021/07/16 00:29:04;;;;;;;16.50;15.60;;;16.80;94.70;;;;;;4987059;28;20556;-68
2021/07/16 00:31:34;;;;;;;15.70;14.90;;;16.70;94.70;;;;;;4990696;28;20484;-68
2021/07/16 00:34:02;;;;;;;16.57;15.33;;;16.80;94.60;;;;;;4990450;28;20462;-68
2021/07/16 00:36:29;;;;;;;15.50;14.80;;;16.70;94.80;;;;;;4990934;28;20477;-68
2021/07/16 00:38:56;;;;;;;16.33;15.53;;;16.60;95.20;;;;;;4991061;28;20540;-68
2021/07/16 00:41:23;;;;;;;15.27;14.57;;;16.60;95.10;;;;;;4988329;28;20454;-68
2021/07/16 00:43:50;;;;;;;15.20;14.50;;;16.60;95.20;;;;;;4991526;28;20453;-68
2021/07/16 00:46:17;;;;;;;15.80;15.10;;;16.60;95.20;;;;;;4992464;28;20484;-68
2021/07/16 00:48:44;;;;;;;15.30;14.60;;;16.60;95.20;;;;;;4990337;28;21000;-69
2021/07/16 00:51:13;;;;;;;16.43;15.40;;;16.50;95.20;;;;;;4988430;28;20454;-68
2021/07/16 00:53:40;;;;;;;15.73;14.90;;;16.50;95.20;;;;;;4988655;28;20472;-68
2021/07/16 00:56:08;;;;;;;15.73;14.87;;;16.50;95.00;;;;;;4989301;28;20481;-68
2021/07/16 00:58:35;;;;;;;15.30;14.60;;;16.50;94.90;;;;;;4994308;28;20476;-68
2021/07/16 01:01:03;;;;;;;16.03;15.13;;;16.50;95.00;;;;;;4991120;28;20948;-68
2021/07/16 01:03:30;;;;;;;15.33;14.60;;;16.40;95.10;;;;;;4989122;28;20879;-69
2021/07/16 01:05:57;;;;;;;15.50;14.70;;;16.30;95.40;;;;;;4991051;28;20493;-68
2021/07/16 01:08:25;;;;;;;15.90;15.10;;;16.30;95.30;;;;;;4990182;28;20577;-68
2021/07/16 01:10:52;;;;;;;15.00;14.30;;;16.30;95.40;;;;;;4989343;28;20457;-68
2021/07/16 01:13:19;;;;;;;15.23;14.53;;;16.20;95.60;;;;;;4991294;28;20456;-68
2021/07/16 01:15:47;;;;;;;16.47;15.47;;;16.30;95.40;;;;;;4989355;28;20573;-68
2021/07/16 01:18:14;;;;;;;15.67;14.87;;;16.30;95.20;;;;;;4989135;28;20454;-68
2021/07/16 01:20:40;;;;;;;15.60;14.70;;;16.30;94.90;;;;;;4989100;28;20479;-68
2021/07/16 01:23:15;;;;;;;16.00;15.20;;;16.20;94.90;;;;;;4990258;28;20990;-69
2021/07/16 01:25:42;;;;;;;15.90;14.90;;;16.20;95.00;;;;;;4989478;28;20491;-68
2021/07/16 01:28:09;;;;;;;15.30;14.50;;;16.20;95.10;;;;;;4990911;28;20487;-68
2021/07/16 01:30:36;;;;;;;16.00;15.20;;;16.20;95.10;;;;;;4989892;28;20500;-68
2021/07/16 01:33:05;;;;;;;15.40;14.60;;;16.20;95.10;;;;;;4988237;28;21173;-68
2021/07/16 01:35:33;;;;;;;15.00;14.30;;;16.20;95.10;;;;;;4988713;28;20485;-68
2021/07/16 01:38:00;;;;;;;15.23;14.37;;;16.30;95.10;;;;;;4991953;28;20844;-68
2021/07/16 01:40:35;;;;;;;15.13;14.43;;;16.20;94.90;;;;;;4987788;28;20975;-68
2021/07/16 01:43:02;;;;;;;14.73;13.90;;;16.20;95.10;;;;;;4989441;28;20484;-68
2021/07/16 01:45:33;;;;;;;15.20;14.40;;;16.10;95.10;;;;;;4989064;28;21046;-68
2021/07/16 01:48:02;;;;;;;15.60;14.80;;;16.10;95.40;;;;;;4990739;28;20477;-68
2021/07/16 01:50:30;;;;;;;14.80;14.10;;;16.10;95.30;;;;;;4982695;28;20469;-68
2021/07/16 01:52:57;;;;;;;16.80;15.70;;;16.10;95.40;;;;;;4984826;28;20458;-69
2021/07/16 01:55:25;;;;;;;15.40;14.70;;;16.10;95.40;;;;;;4988746;28;20478;-68
2021/07/16 01:57:55;;;;;;;15.50;14.80;;;16.00;95.20;;;;;;4989627;28;20458;-68
2021/07/16 02:00:25;;;;;;;15.60;14.70;;;16.00;95.30;;;;;;4989003;28;20449;-68
2021/07/16 02:02:54;;;;;;;15.77;14.87;;;16.00;95.40;;;;;;4979428;28;20454;-68
2021/07/16 02:05:21;;;;;;;15.37;14.60;;;16.00;95.40;;;;;;4989717;28;20482;-68
2021/07/16 02:07:50;;;;;;;14.93;14.20;;;16.10;95.20;;;;;;4990325;28;20525;-68
2021/07/16 02:10:17;;;;;;;14.53;13.73;;;16.10;95.10;;;;;;4987815;28;20971;-68
2021/07/16 02:12:44;;;;;;;14.93;14.23;;;16.10;95.00;;;;;;4992378;28;20462;-68
2021/07/16 02:15:16;;;;;;;15.00;14.30;;;16.10;95.00;;;;;;4989089;28;20481;-68
2021/07/16 02:17:43;;;;;;;15.40;14.60;;;16.10;95.20;;;;;;4989737;28;20477;-68
2021/07/16 02:20:20;;;;;;;14.80;14.10;;;16.10;95.10;;;;;;4988555;28;20453;-67
2021/07/16 02:22:48;;;;;;;14.90;14.20;;;16.10;95.10;;;;;;4991562;28;20488;-67
2021/07/16 02:25:16;;;;;;;15.13;14.33;;;16.00;95.20;;;;;;4987389;28;20485;-68
2021/07/16 02:27:44;;;;;;;15.03;14.33;;;16.00;95.30;;;;;;4989448;28;20485;-68
2021/07/16 02:30:14;;;;;;;15.30;14.60;;;15.90;95.60;;;;;;4987945;28;20466;-68
2021/07/16 02:32:41;;;;;;;15.10;14.40;;;16.00;95.60;;;;;;4987520;28;21049;-68
2021/07/16 02:35:09;;;;;;;14.73;14.03;;;16.00;95.70;;;;;;4987961;28;20991;-68
2021/07/16 02:37:36;;;;;;;14.70;14.00;;;16.00;95.60;;;;;;4992430;28;20535;-68
2021/07/16 02:40:04;;;;;;;15.63;14.67;;;16.00;95.40;;;;;;4987284;28;20462;-68
2021/07/16 02:42:31;;;;;;;15.33;14.53;;;16.00;95.40;;;;;;4988451;28;20756;-68
2021/07/16 02:44:58;;;;;;;15.00;14.30;;;16.10;95.40;;;;;;4987890;28;20496;-68
2021/07/16 02:47:27;;;;;;;16.40;15.30;;;16.00;95.30;;;;;;4989192;28;20482;-68
2021/07/16 02:49:54;;;;;;;16.43;15.33;;;16.00;95.30;;;;;;4987134;28;20460;-68
2021/07/16 02:52:21;;;;;;;15.73;14.87;;;16.10;95.20;;;;;;4987822;28;20581;-68
2021/07/16 02:54:47;;;;;;;16.40;15.53;;;16.00;95.00;;;;;;4988347;28;21362;-68
2021/07/16 02:57:14;;;;;;;16.27;15.10;;;16.00;95.20;;;;;;4988668;28;21123;-68
2021/07/16 02:59:41;;;;;;;15.83;14.63;;;16.10;95.20;;;;;;4990772;28;20461;-67
2021/07/16 03:02:08;;;;;;;15.80;15.00;;;16.10;95.00;;;;;;4987454;28;20481;-67
2021/07/16 03:04:36;;;;;;;16.40;15.60;;;16.10;94.90;;;;;;4987024;28;20473;-67
2021/07/16 03:07:04;;;;;;;16.10;15.30;;;16.10;95.00;;;;;;4988102;28;20466;-68
2021/07/16 03:09:34;;;;;;;15.70;14.90;;;16.10;95.10;;;;;;4986773;28;20535;-67
2021/07/16 03:12:02;;;;;;;15.60;14.80;;;16.10;95.10;;;;;;4988756;28;20469;-67
2021/07/16 03:14:29;;;;;;;17.20;16.30;;;16.10;95.10;;;;;;4986891;28;20516;-68
2021/07/16 03:16:56;;;;;;;16.73;15.83;;;16.10;95.20;;;;;;4989093;28;20545;-67
2021/07/16 03:19:23;;;;;;;16.10;15.30;;;16.10;95.10;;;;;;4988531;28;20484;-67
2021/07/16 03:21:51;;;;;;;17.13;16.23;;;16.10;94.80;;;;;;4988114;28;20751;-67
2021/07/16 03:24:19;;;;;;;16.73;15.93;;;16.10;94.80;;;;;;4986199;28;20485;-68
2021/07/16 03:26:46;;;;;;;17.03;15.80;;;16.10;94.70;;;;;;4989259;28;21000;-67
2021/07/16 03:29:13;;;;;;;16.43;15.53;;;16.10;94.80;;;;;;4985609;28;20484;-68
2021/07/16 03:31:40;;;;;;;17.43;16.10;;;16.10;95.00;;;;;;4987666;28;20458;-68
2021/07/16 03:34:08;;;;;;;17.30;16.20;;;16.00;95.30;;;;;;4987094;28;20489;-68
2021/07/16 03:36:35;;;;;;;17.90;16.90;;;15.90;95.40;;;;;;4987458;28;20862;-68
2021/07/16 03:39:05;;;;;;;16.70;15.60;;;16.00;95.50;;;;;;4986929;28;20460;-68
2021/07/16 03:41:32;;;;;;;17.67;16.77;;;16.00;95.50;;;;;;4985783;28;20876;-68
2021/07/16 03:43:59;;;;;;;17.77;16.43;;;16.00;95.40;;;;;;4985161;28;20565;-68
2021/07/16 03:46:27;;;;;;;17.50;16.70;;;16.10;95.40;;;;;;4986017;28;20497;-68
2021/07/16 03:48:55;;;;;;;16.57;15.70;;;16.10;95.30;;;;;;4988232;28;20481;-68
2021/07/16 03:51:22;;;;;;;16.97;16.00;;;16.20;95.10;;;;;;4986147;28;20473;-68
2021/07/16 03:53:49;;;;;;;16.80;16.00;;;16.20;95.00;;;;;;4987453;28;20461;-68
2021/07/16 03:56:18;;;;;;;16.93;16.13;;;16.30;94.70;;;;;;4987407;28;20481;-68
2021/07/16 03:58:45;;;;;;;18.77;17.50;;;16.20;94.80;;;;;;4988649;28;20453;-68
2021/07/16 04:01:13;;;;;;;18.70;17.70;;;16.10;95.00;;;;;;4985730;28;20992;-68
2021/07/16 04:03:40;;;;;;;17.77;16.80;;;16.20;95.20;;;;;;4990158;28;20544;-68
2021/07/16 04:06:07;;;;;;;17.50;16.37;;;16.30;94.90;;;;;;4989857;28;20485;-68
2021/07/16 04:08:37;;;;;;;16.97;15.80;;;16.40;94.50;;;;;;4989601;28;20481;-67
2021/07/16 04:11:04;;;;;;;16.63;15.83;;;16.40;94.40;;;;;;4994271;28;20959;-68
2021/07/16 04:13:33;;;;;;;16.77;15.87;;;16.40;94.30;;;;;;4990854;28;20997;-68
2021/07/16 04:16:00;;;;;;;17.23;16.33;;;16.50;94.30;;;;;;4988304;28;20474;-68
2021/07/16 04:18:27;;;;;;;16.53;15.73;;;16.50;94.30;;;;;;4990100;28;20469;-68
2021/07/16 04:20:54;;;;;;;18.60;17.40;;;16.60;94.20;;;;;;4990192;28;20905;-68
2021/07/16 04:23:21;;;;;;;17.47;16.30;;;16.60;93.90;;;;;;4991792;28;20467;-68
2021/07/16 04:25:49;;;;;;;17.20;16.20;;;16.70;93.60;;;;;;4989047;28;20853;-72
2021/07/16 04:28:15;;;;;;;16.70;15.90;;;16.70;93.40;;;;;;4984412;28;20561;-68
2021/07/16 04:30:44;;;;;;;17.90;17.00;;;16.70;93.50;;;;;;4996932;28;20925;-68
2021/07/16 04:33:12;;;;;;;17.60;16.70;;;16.80;93.30;;;;;;4982890;28;20458;-68
2021/07/16 04:35:40;;;;;;;17.00;16.20;;;16.90;92.90;;;;;;4990504;28;20569;-68
2021/07/16 04:38:07;;;;;;;18.23;17.33;;;16.90;92.80;;;;;;4994395;28;20457;-68
2021/07/16 04:40:34;;;;;;;17.73;16.83;;;17.00;92.60;;;;;;4988988;28;20468;-68
2021/07/16 04:43:03;;;;;;;18.60;17.70;;;17.00;92.50;;;;;;4990593;28;20454;-68
2021/07/16 04:45:31;;;;;;;16.75;15.85;;;16.90;92.50;;;;;;4988557;28;20505;-68
2021/07/16 04:47:59;;;;;;;19.50;18.50;;;17.20;92.00;;;;;;4992944;28;20198;-67
2021/07/16 04:50:26;;;;;;;17.67;16.77;;;17.10;91.80;;;;;;4986759;28;20457;-69
2021/07/16 04:52:53;;;;;;;18.10;17.20;;;17.00;92.20;;;;;;4990722;28;20556;-68
2021/07/16 04:55:22;;;;;;;17.58;16.48;;;17.00;92.20;;;;;;4984751;28;20477;-69
2021/07/16 04:57:50;;;;;;;18.40;17.30;;;17.10;92.20;;;;;;4985074;28;20202;-68
2021/07/16 05:00:18;;;;;;;20.00;18.80;;;17.10;91.90;;;;;;4983965;28;20484;-69
2021/07/16 05:02:46;;;;;;;17.47;16.60;;;17.10;92.10;;;;;;4987248;28;20458;-69
2021/07/16 05:05:15;;;;;;;17.93;17.00;;;17.10;92.30;;;;;;4987092;28;21007;-69
2021/07/16 05:07:42;;;;;;;17.77;16.83;;;17.20;92.40;;;;;;4987166;28;20485;-69
2021/07/16 05:10:10;;;;;;;19.47;18.03;;;17.30;92.00;;;;;;4986709;28;20481;-68
2021/07/16 05:12:39;;;;;;;19.03;17.93;;;17.40;91.90;;;;;;4983501;28;20555;-68
2021/07/16 05:15:08;;;;;;;18.63;17.67;;;17.50;91.40;;;;;;4986725;28;20481;-68
2021/07/16 05:17:36;;;;;;;19.40;18.40;;;17.50;91.40;;;;;;4990123;28;20564;-69
2021/07/16 05:20:03;;;;;;;19.73;18.53;;;17.60;91.10;;;;;;4986903;28;20605;-68
2021/07/16 05:22:32;;;;;;;21.23;19.70;;;17.70;90.90;;;;;;4989545;28;20577;-68
2021/07/16 05:24:58;;;;;;;22.10;20.90;;;17.80;90.60;;;;;;4985559;28;20484;-68
2021/07/16 05:27:25;;;;;;;23.43;21.77;;;18.00;90.20;;;;;;4990028;28;20847;-68
2021/07/16 05:29:52;;;;;;;24.10;22.30;;;18.20;89.70;;;;;;4988194;28;21020;-69
2021/07/16 05:32:19;;;;;;;23.30;21.73;;;18.20;89.80;;;;;;4989518;28;20477;-69
2021/07/16 05:34:46;;;;;;;24.53;22.73;;;18.00;90.50;;;;;;4987691;28;20462;-68
2021/07/16 05:37:13;;;;;;;26.33;24.43;;;17.80;91.60;;;;;;4989668;28;20465;-68
2021/07/16 05:39:41;;;;;;;23.53;22.00;;;17.70;92.40;;;;;;4981855;28;20471;-68
2021/07/16 05:42:08;;;;;;;22.53;20.73;;;17.40;93.60;;;;;;4986027;28;20461;-68
2021/07/16 05:44:35;;;;;;;24.97;23.27;;;17.20;94.30;;;;;;4986621;28;20465;-68
2021/07/16 05:47:04;;;;;;;25.60;23.77;;;17.20;94.90;;;;;;4989351;28;20825;-69
2021/07/16 05:49:30;;;;;;;23.23;21.57;;;17.40;94.90;;;;;;4987031;28;20507;-69
2021/07/16 05:51:57;;;;;;;24.63;22.93;;;17.60;93.90;;;;;;4987162;28;20912;-69
2021/07/16 05:54:24;;;;;;;22.43;21.03;;;17.70;93.40;;;;;;4984327;28;20464;-69
2021/07/16 05:56:52;;;;;;;23.33;21.83;;;17.80;93.10;;;;;;4982559;28;20491;-68
2021/07/16 05:59:20;;;;;;;23.67;22.27;;;17.90;93.10;;;;;;4986976;28;20457;-69
2021/07/16 06:01:47;;;;;;;24.40;22.37;;;18.00;92.60;;;;;;4987955;28;20516;-68
2021/07/16 06:04:14;;;;;;;32.90;29.60;;;18.10;91.80;;;;;;4986727;28;20457;-69
2021/07/16 06:06:41;;;;;;;24.80;23.00;;;18.20;91.60;;;;;;4987787;28;20477;-68
2021/07/16 06:09:08;;;;;;;30.23;27.23;;;18.30;91.80;;;;;;4986762;28;20478;-69
2021/07/16 06:11:35;;;;;;;27.47;25.40;;;18.20;91.40;;;;;;4987478;28;20464;-68
2021/07/16 06:14:04;;;;;;;25.90;24.20;;;18.10;92.10;;;;;;4988117;28;20461;-68
2021/07/16 06:16:31;;;;;;;25.20;23.67;;;18.20;91.70;;;;;;4988628;28;20484;-68
2021/07/16 06:18:58;;;;;;;27.67;25.97;;;18.30;91.30;;;;;;4989483;28;20445;-69
2021/07/16 06:21:25;;;;;;;26.00;24.20;;;18.10;91.50;;;;;;4988204;28;21224;-69
2021/07/16 06:23:52;;;;;;;26.20;24.30;;;18.20;91.70;;;;;;4987925;28;20458;-69
2021/07/16 06:26:19;;;;;;;26.93;25.00;;;18.10;92.00;;;;;;4987269;28;21021;-69
2021/07/16 06:28:46;;;;;;;25.83;24.03;;;17.90;92.70;;;;;;4990068;28;20482;-68
2021/07/16 06:31:14;;;;;;;26.43;24.77;;;17.90;93.10;;;;;;4988368;28;20473;-69
2021/07/16 06:33:42;;;;;;;26.23;24.23;;;18.20;92.10;;;;;;4989665;28;20466;-68
2021/07/16 06:36:09;;;;;;;27.77;25.90;;;18.20;91.70;;;;;;4987699;28;20500;-68
2021/07/16 06:38:35;;;;;;;26.17;24.57;;;18.20;92.20;;;;;;4993898;28;20464;-70
2021/07/16 06:41:04;;;;;;;24.90;23.40;;;18.10;92.40;;;;;;4988248;28;20466;-68
2021/07/16 06:43:31;;;;;;;26.60;24.90;;;18.20;92.30;;;;;;4988859;28;20559;-68
2021/07/16 06:45:58;;;;;;;25.03;23.33;;;18.30;91.80;;;;;;4988139;28;20484;-68
2021/07/16 06:48:26;;;;;;;26.07;24.27;;;18.20;91.80;;;;;;4983035;28;20886;-68
2021/07/16 06:50:53;;;;;;;26.43;24.57;;;18.10;93.00;;;;;;4983946;28;20476;-68
2021/07/16 06:53:21;;;;;;;26.67;25.00;;;18.50;91.90;;;;;;4988971;28;20846;-68
2021/07/16 06:55:48;;;;;;;27.23;25.23;;;18.40;91.40;;;;;;4988976;28;20608;-68
2021/07/16 06:58:15;;;;;;;25.93;24.13;;;18.70;90.70;;;;;;4989271;28;20879;-69
2021/07/16 07:00:42;;;;;;;28.00;25.90;;;19.10;89.70;;;;;;4983612;28;20470;-69
2021/07/16 07:03:09;;;;;;;30.00;27.70;;;19.20;88.30;;;;;;4983336;28;20856;-68
2021/07/16 07:05:37;;;;;;;27.77;25.97;;;19.50;87.50;;;;;;4983367;28;20588;-68
2021/07/16 07:08:05;;;;;;;28.50;26.80;;;19.60;87.00;;;;;;4985332;28;22763;-68
2021/07/16 07:10:32;;;;;;;28.10;26.30;;;19.70;86.40;;;;;;4983965;28;20485;-68
2021/07/16 07:12:59;;;;;;;29.67;27.57;;;19.50;86.30;;;;;;4981080;28;20489;-71
2021/07/16 07:15:26;;;;;;;30.47;28.57;;;19.50;86.90;;;;;;4983184;28;21008;-70
2021/07/16 07:17:53;;;;;;;29.03;27.00;;;19.50;86.40;;;;;;4986292;28;20477;-70
2021/07/16 07:20:20;;;;;;;28.10;26.20;;;19.50;86.10;;;;;;4988116;28;20461;-70
2021/07/16 07:22:48;;;;;;;31.03;29.10;;;19.50;86.50;;;;;;4989095;28;20832;-70
2021/07/16 07:25:15;;;;;;;28.37;26.57;;;19.30;86.80;;;;;;4985678;28;20497;-69
2021/07/16 07:27:42;;;;;;;27.80;26.20;;;19.10;87.70;;;;;;4992127;28;20461;-72
2021/07/16 07:30:10;;;;;;;31.50;29.50;;;19.00;87.80;;;;;;4985740;28;20987;-69
2021/07/16 07:32:37;;;;;;;29.97;28.17;;;18.90;88.40;;;;;;4988208;28;21240;-70
2021/07/16 07:35:05;;;;;;;27.23;25.70;;;18.90;88.30;;;;;;4989579;28;20489;-69
2021/07/16 07:37:32;;;;;;;27.43;25.83;;;18.70;88.80;;;;;;4992812;28;20897;-68
2021/07/16 07:40:01;;;;;;;26.90;25.30;;;18.60;89.40;;;;;;4992216;28;20457;-68
2021/07/16 07:42:28;;;;;;;27.30;25.63;;;18.80;89.00;;;;;;4988762;28;20524;-67
2021/07/16 07:44:55;;;;;;;25.80;24.30;;;19.00;88.60;;;;;;4988625;28;20492;-67
2021/07/16 07:47:23;;;;;;;28.03;26.53;;;19.30;87.60;;;;;;4989947;28;20548;-67
2021/07/16 07:49:51;;;;;;;27.43;25.63;;;19.30;87.20;;;;;;4990180;28;20483;-68
2021/07/16 07:52:18;;;;;;;26.53;24.70;;;19.40;87.30;;;;;;4991478;28;20497;-67
2021/07/16 07:54:45;;;;;;;25.63;24.23;;;19.50;87.00;;;;;;4988450;28;20552;-67
2021/07/16 07:57:13;;;;;;;27.50;25.83;;;19.70;86.00;;;;;;4989781;28;20985;-68
2021/07/16 07:59:42;;;;;;;29.83;28.13;;;19.70;85.60;;;;;;4986784;28;20449;-67
2021/07/16 08:02:10;;;;;;;27.07;25.60;;;20.10;84.00;;;;;;4988241;28;20469;-67
2021/07/16 08:04:37;;;;;;;25.77;24.40;;;20.30;83.10;;;;;;4991100;28;20456;-69
2021/07/16 08:07:05;;;;;;;27.97;26.37;;;20.50;83.10;;;;;;4989908;28;20562;-69
2021/07/16 08:09:32;;;;;;;29.03;27.33;;;20.90;81.40;;;;;;4990361;28;20742;-68
2021/07/16 08:12:00;;;;;;;29.77;28.07;;;20.90;80.90;;;;;;4991142;28;20955;-68
2021/07/16 08:14:28;;;;;;;29.20;27.70;;;20.80;80.70;;;;;;4987315;28;20461;-69
2021/07/16 08:16:55;;;;;;;29.27;27.47;;;20.80;81.20;;;;;;4990124;28;20476;-68
2021/07/16 08:19:22;;;;;;;29.83;28.20;;;20.60;80.90;;;;;;4985782;28;20454;-68
2021/07/16 08:21:52;;;;;;;29.30;27.50;;;20.80;79.90;;;;;;4987969;28;20464;-69
2021/07/16 08:24:20;;;;;;;28.80;27.00;;;20.60;81.40;;;;;;4988641;28;21130;-68
2021/07/16 08:26:47;;;;;;;30.30;28.37;;;20.50;80.60;;;;;;4989389;28;20513;-69
2021/07/16 08:29:15;;;;;;;29.40;27.80;;;20.30;81.40;;;;;;4986968;28;20489;-69
2021/07/16 08:31:45;;;;;;;28.97;27.27;;;20.20;81.90;;;;;;4989442;28;20468;-69
2021/07/16 08:34:15;;;;;;;31.23;29.53;;;20.30;80.80;;;;;;4987071;28;20556;-69
2021/07/16 08:36:42;;;;;;;30.30;28.40;;;20.40;80.60;;;;;;4988061;28;20480;-69
2021/07/16 08:39:10;;;;;;;31.33;29.43;;;20.20;81.00;;;;;;4989444;28;20480;-69
2021/07/16 08:41:37;;;;;;;29.30;27.70;;;20.40;80.80;;;;;;4987521;28;20967;-69
2021/07/16 08:44:05;;;;;;;30.90;29.10;;;20.70;79.70;;;;;;4986165;28;20466;-68
2021/07/16 08:46:32;;;;;;;31.67;29.83;;;20.90;78.70;;;;;;4990793;28;20481;-68
2021/07/16 08:49:01;;;;;;;29.63;27.93;;;20.70;79.20;;;;;;4988920;28;20891;-69
2021/07/16 08:51:28;;;;;;;31.90;30.10;;;20.70;79.20;;;;;;4992393;28;20461;-69
2021/07/16 08:53:57;;;;;;;29.70;28.03;;;20.60;79.40;;;;;;4992623;28;20848;-69
2021/07/16 08:56:26;;;;;;;30.83;29.13;;;20.80;78.50;;;;;;4989637;28;20975;-68
2021/07/16 08:58:53;;;;;;;31.50;29.77;;;21.30;77.30;;;;;;4993401;28;20454;-69
2021/07/16 09:01:20;;;;;;;30.77;29.07;;;21.40;77.10;;;;;;4993891;28;20674;-69
2021/07/16 09:04:03;;;;;;;31.03;29.10;;;21.80;75.80;;;;;;4995408;28;21006;-69
2021/07/16 09:06:47;;;;;;;31.23;29.33;;;22.10;74.50;;;;;;4989941;28;20901;-69
2021/07/16 09:09:16;;;;;;;30.43;28.77;;;22.30;73.80;;;;;;4988324;28;20837;-69
2021/07/16 09:11:45;;;;;;;31.27;29.13;;;22.40;73.30;;;;;;4988779;28;20819;-69
2021/07/16 09:14:20;;;;;;;35.13;32.97;;;22.50;72.60;;;;;;4988046;28;20464;-68
2021/07/16 09:16:56;;;;;;;32.30;30.40;;;22.30;73.20;;;;;;4981038;28;20473;-69
2021/07/16 09:19:39;;;;;;;31.90;30.00;;;22.20;73.60;;;;;;4993233;28;20901;-68
2021/07/16 09:22:10;;;;;;;30.97;29.27;;;21.70;75.30;;;;;;4989081;28;20457;-69
2021/07/16 09:24:38;;;;;;;29.27;27.57;;;21.40;76.70;;;;;;4984487;28;20525;-69
2021/07/16 09:27:30;;;;;;;32.27;30.47;;;21.60;76.20;;;;;;4990185;28;20470;-68
2021/07/16 09:30:11;;;;;;;30.10;28.47;;;21.70;75.20;;;;;;4981419;28;20971;-69
2021/07/16 09:32:39;;;;;;;30.60;28.90;;;21.90;74.80;;;;;;4987572;28;20472;-69
2021/07/16 09:35:08;;;;;;;34.10;32.07;;;22.00;74.50;;;;;;4988527;28;20484;-69
2021/07/16 09:37:51;;;;;;;31.70;29.90;;;21.90;74.90;;;;;;4992924;28;20479;-70
2021/07/16 09:40:23;;;;;;;30.73;29.00;;;22.20;74.40;;;;;;4986746;28;20461;-69
2021/07/16 09:43:01;;;;;;;33.70;31.83;;;22.30;73.90;;;;;;4992771;28;20462;-69
2021/07/16 09:45:29;;;;;;;32.57;30.63;;;22.50;73.60;;;;;;4984863;28;20490;-69
2021/07/16 09:47:56;;;;;;;33.93;32.03;;;22.50;72.80;;;;;;4985856;28;20565;-69
2021/07/16 09:50:26;;;;;;;31.10;29.40;;;22.50;72.90;;;;;;4988386;28;20540;-69
2021/07/16 09:53:17;;;;;;;32.77;31.00;;;22.50;72.30;;;;;;4989517;28;20960;-69
2021/07/16 09:55:44;;;;;;;33.60;31.70;;;22.20;74.20;;;;;;4982308;28;20480;-69
2021/07/16 09:58:25;;;;;;;30.83;29.03;;;22.50;72.60;;;;;;4988816;28;20464;-69
2021/07/16 10:00:53;;;;;;;32.20;30.30;;;22.50;72.60;;;;;;4986744;28;20572;-69
2021/07/16 10:03:21;;;;;;;32.00;30.20;;;22.50;72.30;;;;;;4985629;28;20458;-69
2021/07/16 10:05:51;;;;;;;31.80;30.00;;;22.40;73.00;;;;;;4984197;28;20902;-69
2021/07/16 10:08:19;;;;;;;31.70;30.00;;;22.80;71.90;;;;;;4985460;28;20470;-69
2021/07/16 10:10:48;;;;;;;30.23;28.60;;;22.90;72.10;;;;;;4982286;28;20478;-69
2021/07/16 10:13:16;;;;;;;31.30;29.60;;;23.00;71.30;;;;;;4985062;28;20481;-69
2021/07/16 10:15:44;;;;;;;31.53;29.87;;;23.00;70.90;;;;;;4982819;28;20580;-69
2021/07/16 10:18:11;;;;;;;33.40;31.60;;;23.30;70.90;;;;;;4983757;28;20959;-69
2021/07/16 10:20:38;;;;;;;32.90;31.00;;;23.30;69.50;;;;;;4983016;28;20461;-69
2021/07/16 10:23:08;;;;;;;32.20;30.50;;;23.40;69.90;;;;;;4983477;28;20476;-69
2021/07/16 10:25:36;;;;;;;30.70;29.10;;;23.80;67.40;;;;;;4986108;28;20497;-69
2021/07/16 10:28:03;;;;;;;32.63;30.70;;;23.80;67.40;;;;;;4985281;28;20828;-69
2021/07/16 10:30:38;;;;;;;29.57;28.07;;;24.00;67.70;;;;;;4983385;28;20484;-69
2021/07/16 10:33:05;;;;;;;31.90;30.30;;;24.20;66.80;;;;;;4990704;28;20459;-69
2021/07/16 10:35:37;;;;;;;30.77;29.07;;;24.30;65.40;;;;;;4988730;28;20580;-71
2021/07/16 10:38:26;;;;;;;29.60;28.00;;;24.60;64.30;;;;;;4989996;28;20466;-70
2021/07/16 10:40:53;;;;;;;30.80;29.00;;;24.10;65.00;;;;;;4986742;28;20482;-69
2021/07/16 10:43:42;;;;;;;30.57;28.87;;;23.90;66.60;;;;;;4989113;28;20456;-70
2021/07/16 10:46:29;;;;;;;31.13;29.43;;;23.80;66.10;;;;;;4988082;28;20489;-72
2021/07/16 10:48:55;;;;;;;31.63;29.93;;;23.70;67.20;;;;;;4984089;28;20828;-70
2021/07/16 10:51:25;;;;;;;30.37;28.77;;;23.80;65.30;;;;;;4988224;28;20478;-68
2021/07/16 10:53:54;;;;;;;30.90;29.20;;;23.80;64.40;;;;;;4988830;28;20585;-68
2021/07/16 10:56:35;;;;;;;31.47;29.70;;;23.80;64.30;;;;;;4988812;28;20516;-69
2021/07/16 10:59:02;;;;;;;30.20;28.60;;;23.80;63.60;;;;;;4989413;28;20453;-70
2021/07/16 11:01:35;;;;;;;29.93;28.30;;;23.80;64.90;;;;;;4989665;28;20839;-69
2021/07/16 11:04:04;;;;;;;39.23;37.53;;;24.20;64.40;;;;;;4989540;28;20472;-68
2021/07/16 11:06:52;;;;;;;29.50;27.97;;;24.40;64.60;;;;;;4993432;28;20478;-68
2021/07/16 11:09:42;;;;;;;36.37;34.67;;;24.80;64.10;;;;;;4987931;28;20461;-70
2021/07/16 11:12:35;;;;;;;30.67;28.97;;;25.30;62.10;;;;;;4983585;28;20469;-70
2021/07/16 11:15:03;;;;;;;31.70;29.90;;;25.40;61.60;;;;;;4992460;28;21074;-71
2021/07/16 11:17:32;;;;;;;29.07;27.57;;;25.10;62.70;;;;;;4992598;28;20540;-70
2021/07/16 11:20:30;;;;;;;34.03;32.33;;;24.90;63.50;;;;;;4992993;28;20458;-71
2021/07/16 11:23:02;;;;;;;29.97;28.30;;;24.50;64.30;;;;;;4981595;28;20959;-71
2021/07/16 11:25:31;;;;;;;31.90;30.10;;;24.40;64.70;;;;;;4990571;28;20497;-70
2021/07/16 11:27:58;;;;;;;29.57;27.97;;;24.20;64.40;;;;;;4995944;28;20930;-69
2021/07/16 11:30:26;;;;;;;31.20;29.50;;;23.90;65.50;;;;;;5000938;28;21009;-70
2021/07/16 11:33:05;;;;;;;34.67;32.60;;;24.40;64.60;;;;;;4993441;28;20561;-70
2021/07/16 11:35:33;;;;;;;32.80;30.80;;;24.60;63.70;;;;;;4991346;28;20481;-70
2021/07/16 11:38:05;;;;;;;28.97;27.40;;;24.30;64.10;;;;;;4990445;28;20457;-70
2021/07/16 11:40:34;;;;;;;30.50;28.83;;;23.80;65.10;;;;;;4992389;28;20461;-70
2021/07/16 11:43:04;;;;;;;29.90;28.27;;;23.70;65.80;;;;;;4992177;28;20476;-70
2021/07/16 11:45:32;;;;;;;29.60;28.00;;;23.60;65.40;;;;;;4987991;28;21109;-69
2021/07/16 11:48:11;;;;;;;30.13;28.53;;;23.40;66.60;;;;;;4990201;28;20461;-69
2021/07/16 11:50:38;;;;;;;30.37;28.63;;;23.30;66.00;;;;;;4991951;28;21026;-69
2021/07/16 11:53:08;;;;;;;29.60;28.00;;;23.50;66.40;;;;;;4991693;28;20453;-69
2021/07/16 11:55:36;;;;;;;28.47;26.97;;;23.30;67.00;;;;;;4990804;28;20485;-68
2021/07/16 11:58:05;;;;;;;29.00;27.50;;;23.10;67.80;;;;;;4997598;28;20453;-69
2021/07/16 12:00:33;;;;;;;28.43;26.93;;;23.00;68.00;;;;;;4991324;28;20467;-69
2021/07/16 12:03:01;;;;;;;31.10;29.50;;;23.10;67.20;;;;;;4992310;28;20460;-70
2021/07/16 12:05:28;;;;;;;28.80;27.30;;;23.10;66.00;;;;;;4991845;28;20481;-70
2021/07/16 12:07:56;;;;;;;29.00;27.50;;;23.20;66.60;;;;;;4992598;28;20548;-70
2021/07/16 12:10:24;;;;;;;28.93;27.27;;;23.40;65.90;;;;;;4991700;28;20910;-70
2021/07/16 12:13:00;;;;;;;30.50;28.90;;;23.90;64.00;;;;;;4992611;28;20540;-70
2021/07/16 12:15:27;;;;;;;29.73;28.13;;;24.10;63.50;;;;;;4991501;28;20484;-70
2021/07/16 12:17:55;;;;;;;30.47;28.80;;;24.60;62.90;;;;;;4991844;28;20454;-70
2021/07/16 12:20:28;;;;;;;29.23;27.63;;;24.80;61.80;;;;;;4991651;28;20453;-70
2021/07/16 12:22:55;;;;;;;30.03;28.43;;;25.00;60.90;;;;;;4990596;28;20465;-70
2021/07/16 12:25:22;;;;;;;31.20;29.40;;;24.60;61.50;;;;;;4991715;28;20490;-69
2021/07/16 12:28:07;;;;;;;30.70;29.00;;;24.70;61.80;;;;;;4991784;28;20460;-70
2021/07/16 12:30:34;;;;;;;30.10;28.50;;;24.90;61.20;;;;;;4990589;28;20820;-70
2021/07/16 12:33:03;;;;;;;32.27;30.47;;;25.20;60.60;;;;;;4992095;28;20457;-69
2021/07/16 12:35:30;;;;;;;29.60;27.90;;;25.20;61.00;;;;;;4990879;28;20489;-70
2021/07/16 12:38:02;;;;;;;29.80;28.30;;;25.30;60.70;;;;;;4995012;28;20458;-71